sensor_id;sensor_type;location;lat;lon;timestamp;temperature;humidity
24518;DHT22;12678;51.336;12.406;2024-02-21T00:00:55;9.50;99.90
24518;DHT22;12678;51.336;12.406;2024-02-21T00:03:20;9.50;99.90
24518;DHT22;12678;51.336;12.406;2024-02-21T00:05:46;9.50;99.90
24518;DHT22;12678;51.336;12.406;2024-02-21T00:08:11;9.50;99.90
24518;DHT22;12678;51.336;12.406;2024-02-21T00:10:37;9.50;99.90
24518;DHT22;12678;51.336;12.406;2024-02-21T00:13:03;9.50;99.90
24518;DHT22;12678;51.336;12.406;2024-02-21T00:15:29;9.50;99.90
24518;DHT22;12678;51.336;12.406;2024-02-21T00:17:54;9.50;99.90
24518;DHT22;12678;51.336;12.406;2024-02-21T00:20:20;9.50;99.90
24518;DHT22;12678;51.336;12.406;2024-02-21T00:22:46;9.50;99.90
24518;DHT22;12678;51.336;12.406;2024-02-21T00:25:11;9.50;99.90
24518;DHT22;12678;51.336;12.406;2024-02-21T00:27:38;9.40;99.90
24518;DHT22;12678;51.336;12.406;2024-02-21T00:30:04;9.40;99.90
24518;DHT22;12678;51.336;12.406;2024-02-21T00:32:30;9.40;99.90
24518;DHT22;12678;51.336;12.406;2024-02-21T00:34:57;9.40;99.90
24518;DHT22;12678;51.336;12.406;2024-02-21T00:37:23;9.40;99.90
24518;DHT22;12678;51.336;12.406;2024-02-21T00:39:48;9.40;99.90
24518;DHT22;12678;51.336;12.406;2024-02-21T00:42:14;9.40;99.90
24518;DHT22;12678;51.336;12.406;2024-02-21T00:44:40;9.40;99.90
24518;DHT22;12678;51.336;12.406;2024-02-21T00:47:06;9.40;99.90
24518;DHT22;12678;51.336;12.406;2024-02-21T00:49:31;9.40;99.90
24518;DHT22;12678;51.336;12.406;2024-02-21T00:51:57;9.40;99.90
24518;DHT22;12678;51.336;12.406;2024-02-21T00:54:22;9.40;99.90
24518;DHT22;12678;51.336;12.406;2024-02-21T00:56:48;9.40;99.90
24518;DHT22;12678;51.336;12.406;2024-02-21T00:59:14;9.40;99.90
24518;DHT22;12678;51.336;12.406;2024-02-21T01:01:39;9.30;99.90
24518;DHT22;12678;51.336;12.406;2024-02-21T01:04:08;9.40;99.90
24518;DHT22;12678;51.336;12.406;2024-02-21T01:06:34;9.40;99.90
24518;DHT22;12678;51.336;12.406;2024-02-21T01:08:59;9.30;99.90
24518;DHT22;12678;51.336;12.406;2024-02-21T01:11:26;9.20;99.90
24518;DHT22;12678;51.336;12.406;2024-02-21T01:13:52;9.20;99.90
24518;DHT22;12678;51.336;12.406;2024-02-21T01:16:18;9.30;99.90
24518;DHT22;12678;51.336;12.406;2024-02-21T01:18:44;9.20;99.90
24518;DHT22;12678;51.336;12.406;2024-02-21T01:21:09;9.20;99.90
24518;DHT22;12678;51.336;12.406;2024-02-21T01:23:36;9.30;99.90
24518;DHT22;12678;51.336;12.406;2024-02-21T01:26:03;9.20;99.90
24518;DHT22;12678;51.336;12.406;2024-02-21T01:28:29;9.30;99.90
24518;DHT22;12678;51.336;12.406;2024-02-21T01:30:54;9.30;99.90
24518;DHT22;12678;51.336;12.406;2024-02-21T01:33:20;9.30;99.90
24518;DHT22;12678;51.336;12.406;2024-02-21T01:35:45;9.30;99.90
24518;DHT22;12678;51.336;12.406;2024-02-21T01:38:12;9.30;99.90
24518;DHT22;12678;51.336;12.406;2024-02-21T01:40:39;9.30;99.90
24518;DHT22;12678;51.336;12.406;2024-02-21T01:43:15;9.30;99.90
24518;DHT22;12678;51.336;12.406;2024-02-21T01:45:41;9.30;99.90
24518;DHT22;12678;51.336;12.406;2024-02-21T01:48:07;9.30;99.90
24518;DHT22;12678;51.336;12.406;2024-02-21T01:50:33;9.30;99.90
24518;DHT22;12678;51.336;12.406;2024-02-21T01:52:59;9.30;99.90
24518;DHT22;12678;51.336;12.406;2024-02-21T01:55:25;9.30;99.90
24518;DHT22;12678;51.336;12.406;2024-02-21T01:57:51;9.30;99.90
24518;DHT22;12678;51.336;12.406;2024-02-21T02:00:17;9.30;99.90
24518;DHT22;12678;51.336;12.406;2024-02-21T02:02:43;9.30;99.90
24518;DHT22;12678;51.336;12.406;2024-02-21T02:05:10;9.30;99.90
24518;DHT22;12678;51.336;12.406;2024-02-21T02:07:37;9.20;99.90
24518;DHT22;12678;51.336;12.406;2024-02-21T02:10:03;9.30;99.90
24518;DHT22;12678;51.336;12.406;2024-02-21T02:12:29;9.30;99.90
24518;DHT22;12678;51.336;12.406;2024-02-21T02:15:02;9.30;99.90
24518;DHT22;12678;51.336;12.406;2024-02-21T02:17:30;9.30;99.90
24518;DHT22;12678;51.336;12.406;2024-02-21T02:19:56;9.30;99.90
24518;DHT22;12678;51.336;12.406;2024-02-21T02:22:32;9.30;99.90
24518;DHT22;12678;51.336;12.406;2024-02-21T02:24:58;9.30;99.90
24518;DHT22;12678;51.336;12.406;2024-02-21T02:27:24;9.20;99.90
24518;DHT22;12678;51.336;12.406;2024-02-21T02:29:51;9.30;99.90
24518;DHT22;12678;51.336;12.406;2024-02-21T02:32:17;9.30;99.90
24518;DHT22;12678;51.336;12.406;2024-02-21T02:34:44;9.30;99.90
24518;DHT22;12678;51.336;12.406;2024-02-21T02:37:10;9.30;99.90
24518;DHT22;12678;51.336;12.406;2024-02-21T02:39:35;9.30;99.90
24518;DHT22;12678;51.336;12.406;2024-02-21T02:42:02;9.30;99.90
24518;DHT22;12678;51.336;12.406;2024-02-21T02:44:27;9.20;99.90
24518;DHT22;12678;51.336;12.406;2024-02-21T02:46:53;9.20;99.90
24518;DHT22;12678;51.336;12.406;2024-02-21T02:49:18;9.20;99.90
24518;DHT22;12678;51.336;12.406;2024-02-21T02:51:44;9.20;99.90
24518;DHT22;12678;51.336;12.406;2024-02-21T02:54:10;9.20;99.90
24518;DHT22;12678;51.336;12.406;2024-02-21T02:56:36;9.20;99.90
24518;DHT22;12678;51.336;12.406;2024-02-21T02:59:01;9.20;99.90
24518;DHT22;12678;51.336;12.406;2024-02-21T03:01:27;9.20;99.90
24518;DHT22;12678;51.336;12.406;2024-02-21T03:03:52;9.20;99.90
24518;DHT22;12678;51.336;12.406;2024-02-21T03:06:18;9.20;99.90
24518;DHT22;12678;51.336;12.406;2024-02-21T03:08:44;9.30;99.90
24518;DHT22;12678;51.336;12.406;2024-02-21T03:11:09;9.30;99.90
24518;DHT22;12678;51.336;12.406;2024-02-21T03:13:36;9.30;99.90
24518;DHT22;12678;51.336;12.406;2024-02-21T03:16:02;9.30;99.90
24518;DHT22;12678;51.336;12.406;2024-02-21T03:18:27;9.20;99.90
24518;DHT22;12678;51.336;12.406;2024-02-21T03:20:53;9.20;99.90
24518;DHT22;12678;51.336;12.406;2024-02-21T03:23:18;9.20;99.90
24518;DHT22;12678;51.336;12.406;2024-02-21T03:25:44;9.20;99.90
24518;DHT22;12678;51.336;12.406;2024-02-21T03:28:09;9.20;99.90
24518;DHT22;12678;51.336;12.406;2024-02-21T03:30:35;9.20;99.90
24518;DHT22;12678;51.336;12.406;2024-02-21T03:33:00;9.20;99.90
24518;DHT22;12678;51.336;12.406;2024-02-21T03:35:26;9.30;99.90
24518;DHT22;12678;51.336;12.406;2024-02-21T03:37:52;9.30;99.90
24518;DHT22;12678;51.336;12.406;2024-02-21T03:40:18;9.30;99.90
24518;DHT22;12678;51.336;12.406;2024-02-21T03:42:43;9.30;99.90
24518;DHT22;12678;51.336;12.406;2024-02-21T03:45:09;9.30;99.90
24518;DHT22;12678;51.336;12.406;2024-02-21T03:47:35;9.30;99.90
24518;DHT22;12678;51.336;12.406;2024-02-21T03:50:00;9.30;99.90
24518;DHT22;12678;51.336;12.406;2024-02-21T03:52:26;9.20;99.90
24518;DHT22;12678;51.336;12.406;2024-02-21T03:54:51;9.30;99.90
24518;DHT22;12678;51.336;12.406;2024-02-21T03:57:17;9.30;99.90
24518;DHT22;12678;51.336;12.406;2024-02-21T03:59:43;9.30;99.90
24518;DHT22;12678;51.336;12.406;2024-02-21T04:02:08;9.30;99.90
24518;DHT22;12678;51.336;12.406;2024-02-21T04:04:37;9.40;99.90
24518;DHT22;12678;51.336;12.406;2024-02-21T04:07:03;9.40;99.90
24518;DHT22;12678;51.336;12.406;2024-02-21T04:09:35;9.40;99.90
24518;DHT22;12678;51.336;12.406;2024-02-21T04:12:01;9.40;99.90
24518;DHT22;12678;51.336;12.406;2024-02-21T04:14:26;9.40;99.90
24518;DHT22;12678;51.336;12.406;2024-02-21T04:16:52;9.40;99.90
24518;DHT22;12678;51.336;12.406;2024-02-21T04:19:17;9.30;99.90
24518;DHT22;12678;51.336;12.406;2024-02-21T04:21:42;9.30;99.90
24518;DHT22;12678;51.336;12.406;2024-02-21T04:24:08;9.30;99.90
24518;DHT22;12678;51.336;12.406;2024-02-21T04:26:34;9.30;99.90
24518;DHT22;12678;51.336;12.406;2024-02-21T04:28:59;9.30;99.90
24518;DHT22;12678;51.336;12.406;2024-02-21T04:31:25;9.20;99.90
24518;DHT22;12678;51.336;12.406;2024-02-21T04:33:51;9.30;99.90
24518;DHT22;12678;51.336;12.406;2024-02-21T04:36:16;9.30;99.90
24518;DHT22;12678;51.336;12.406;2024-02-21T04:38:42;9.30;99.90
24518;DHT22;12678;51.336;12.406;2024-02-21T04:41:07;9.30;99.90
24518;DHT22;12678;51.336;12.406;2024-02-21T04:43:33;9.20;99.90
24518;DHT22;12678;51.336;12.406;2024-02-21T04:45:58;9.20;99.90
24518;DHT22;12678;51.336;12.406;2024-02-21T04:48:24;9.20;99.90
24518;DHT22;12678;51.336;12.406;2024-02-21T04:50:49;9.20;99.90
24518;DHT22;12678;51.336;12.406;2024-02-21T04:53:17;9.20;99.90
24518;DHT22;12678;51.336;12.406;2024-02-21T04:55:42;9.20;99.90
24518;DHT22;12678;51.336;12.406;2024-02-21T04:58:08;9.30;99.90
24518;DHT22;12678;51.336;12.406;2024-02-21T05:00:35;9.30;99.90
24518;DHT22;12678;51.336;12.406;2024-02-21T05:03:01;9.20;99.90
24518;DHT22;12678;51.336;12.406;2024-02-21T05:05:26;9.20;99.90
24518;DHT22;12678;51.336;12.406;2024-02-21T05:07:52;9.20;99.90
24518;DHT22;12678;51.336;12.406;2024-02-21T05:10:19;9.20;99.90
24518;DHT22;12678;51.336;12.406;2024-02-21T05:12:45;9.20;99.90
24518;DHT22;12678;51.336;12.406;2024-02-21T05:15:11;9.20;99.90
24518;DHT22;12678;51.336;12.406;2024-02-21T05:17:36;9.20;99.90
24518;DHT22;12678;51.336;12.406;2024-02-21T05:20:02;9.20;99.90
24518;DHT22;12678;51.336;12.406;2024-02-21T05:22:29;9.30;99.90
24518;DHT22;12678;51.336;12.406;2024-02-21T05:24:54;9.30;99.90
24518;DHT22;12678;51.336;12.406;2024-02-21T05:27:20;9.30;99.90
24518;DHT22;12678;51.336;12.406;2024-02-21T05:29:46;9.30;99.90
24518;DHT22;12678;51.336;12.406;2024-02-21T05:32:11;9.20;99.90
24518;DHT22;12678;51.336;12.406;2024-02-21T05:34:37;9.20;99.90
24518;DHT22;12678;51.336;12.406;2024-02-21T05:37:03;9.30;99.90
24518;DHT22;12678;51.336;12.406;2024-02-21T05:39:28;9.20;99.90
24518;DHT22;12678;51.336;12.406;2024-02-21T05:41:54;9.20;99.90
24518;DHT22;12678;51.336;12.406;2024-02-21T05:44:20;9.20;99.90
24518;DHT22;12678;51.336;12.406;2024-02-21T05:46:47;9.20;99.90
24518;DHT22;12678;51.336;12.406;2024-02-21T05:49:13;9.10;99.90
24518;DHT22;12678;51.336;12.406;2024-02-21T05:51:39;9.10;99.90
24518;DHT22;12678;51.336;12.406;2024-02-21T05:54:05;9.20;99.90
24518;DHT22;12678;51.336;12.406;2024-02-21T05:56:32;9.20;99.90
24518;DHT22;12678;51.336;12.406;2024-02-21T05:58:58;9.20;99.90
24518;DHT22;12678;51.336;12.406;2024-02-21T06:01:23;9.10;99.90
24518;DHT22;12678;51.336;12.406;2024-02-21T06:03:49;9.10;99.90
24518;DHT22;12678;51.336;12.406;2024-02-21T06:06:15;9.10;99.90
24518;DHT22;12678;51.336;12.406;2024-02-21T06:08:40;9.00;99.90
24518;DHT22;12678;51.336;12.406;2024-02-21T06:11:06;9.00;99.90
24518;DHT22;12678;51.336;12.406;2024-02-21T06:13:31;9.00;99.90
24518;DHT22;12678;51.336;12.406;2024-02-21T06:15:57;9.00;99.90
24518;DHT22;12678;51.336;12.406;2024-02-21T06:18:22;8.90;99.90
24518;DHT22;12678;51.336;12.406;2024-02-21T06:20:48;8.90;99.90
24518;DHT22;12678;51.336;12.406;2024-02-21T06:23:15;8.80;99.90
24518;DHT22;12678;51.336;12.406;2024-02-21T06:25:42;8.80;99.90
24518;DHT22;12678;51.336;12.406;2024-02-21T06:28:07;8.70;99.90
24518;DHT22;12678;51.336;12.406;2024-02-21T06:30:33;8.70;99.90
24518;DHT22;12678;51.336;12.406;2024-02-21T06:32:58;8.70;99.90
24518;DHT22;12678;51.336;12.406;2024-02-21T06:35:25;8.70;99.90
24518;DHT22;12678;51.336;12.406;2024-02-21T06:37:53;8.80;99.90
24518;DHT22;12678;51.336;12.406;2024-02-21T06:40:21;8.80;99.90
24518;DHT22;12678;51.336;12.406;2024-02-21T06:42:49;8.80;99.90
24518;DHT22;12678;51.336;12.406;2024-02-21T06:45:15;8.80;99.90
24518;DHT22;12678;51.336;12.406;2024-02-21T06:47:40;8.90;99.90
24518;DHT22;12678;51.336;12.406;2024-02-21T06:50:06;8.90;99.90
24518;DHT22;12678;51.336;12.406;2024-02-21T06:52:32;8.90;99.90
24518;DHT22;12678;51.336;12.406;2024-02-21T06:54:57;8.90;99.90
24518;DHT22;12678;51.336;12.406;2024-02-21T06:57:23;8.90;99.90
24518;DHT22;12678;51.336;12.406;2024-02-21T06:59:49;8.90;99.90
24518;DHT22;12678;51.336;12.406;2024-02-21T07:02:14;9.00;99.90
24518;DHT22;12678;51.336;12.406;2024-02-21T07:04:40;9.00;99.90
24518;DHT22;12678;51.336;12.406;2024-02-21T07:07:05;9.00;99.90
24518;DHT22;12678;51.336;12.406;2024-02-21T07:09:32;9.00;99.90
24518;DHT22;12678;51.336;12.406;2024-02-21T07:11:58;9.00;99.90
24518;DHT22;12678;51.336;12.406;2024-02-21T07:14:24;9.00;99.90
24518;DHT22;12678;51.336;12.406;2024-02-21T07:16:49;9.10;99.90
24518;DHT22;12678;51.336;12.406;2024-02-21T07:19:15;9.10;99.90
24518;DHT22;12678;51.336;12.406;2024-02-21T07:21:40;9.00;99.90
24518;DHT22;12678;51.336;12.406;2024-02-21T07:24:07;9.00;99.90
24518;DHT22;12678;51.336;12.406;2024-02-21T07:26:33;9.10;99.90
24518;DHT22;12678;51.336;12.406;2024-02-21T07:28:59;9.20;99.90
24518;DHT22;12678;51.336;12.406;2024-02-21T07:31:24;9.20;99.90
24518;DHT22;12678;51.336;12.406;2024-02-21T07:33:50;9.20;99.90
24518;DHT22;12678;51.336;12.406;2024-02-21T07:36:15;9.20;99.90
24518;DHT22;12678;51.336;12.406;2024-02-21T07:38:49;9.30;99.90
24518;DHT22;12678;51.336;12.406;2024-02-21T07:41:15;9.30;99.90
24518;DHT22;12678;51.336;12.406;2024-02-21T07:43:40;9.40;99.90
24518;DHT22;12678;51.336;12.406;2024-02-21T07:46:06;9.40;99.90
24518;DHT22;12678;51.336;12.406;2024-02-21T07:48:31;9.40;99.90
24518;DHT22;12678;51.336;12.406;2024-02-21T07:50:57;9.50;99.90
24518;DHT22;12678;51.336;12.406;2024-02-21T07:53:22;9.50;99.90
24518;DHT22;12678;51.336;12.406;2024-02-21T07:55:48;9.50;99.90
24518;DHT22;12678;51.336;12.406;2024-02-21T07:58:13;9.50;99.90
24518;DHT22;12678;51.336;12.406;2024-02-21T08:00:39;9.60;99.90
24518;DHT22;12678;51.336;12.406;2024-02-21T08:03:04;9.50;99.90
24518;DHT22;12678;51.336;12.406;2024-02-21T08:05:30;9.50;99.90
24518;DHT22;12678;51.336;12.406;2024-02-21T08:07:55;9.60;99.90
24518;DHT22;12678;51.336;12.406;2024-02-21T08:10:21;9.70;99.90
24518;DHT22;12678;51.336;12.406;2024-02-21T08:12:46;9.80;99.90
24518;DHT22;12678;51.336;12.406;2024-02-21T08:15:12;9.70;99.90
24518;DHT22;12678;51.336;12.406;2024-02-21T08:17:38;9.80;99.90
24518;DHT22;12678;51.336;12.406;2024-02-21T08:20:06;9.80;99.90
24518;DHT22;12678;51.336;12.406;2024-02-21T08:22:32;9.90;99.90
24518;DHT22;12678;51.336;12.406;2024-02-21T08:24:58;10.00;99.90
24518;DHT22;12678;51.336;12.406;2024-02-21T08:27:23;10.00;99.90
24518;DHT22;12678;51.336;12.406;2024-02-21T08:29:49;10.00;99.90
24518;DHT22;12678;51.336;12.406;2024-02-21T08:32:14;10.10;99.90
24518;DHT22;12678;51.336;12.406;2024-02-21T08:34:40;10.10;99.90
24518;DHT22;12678;51.336;12.406;2024-02-21T08:37:05;10.20;99.90
24518;DHT22;12678;51.336;12.406;2024-02-21T08:39:31;10.20;99.90
24518;DHT22;12678;51.336;12.406;2024-02-21T08:41:56;10.30;99.90
24518;DHT22;12678;51.336;12.406;2024-02-21T08:44:23;10.20;99.90
24518;DHT22;12678;51.336;12.406;2024-02-21T08:46:49;10.10;99.90
24518;DHT22;12678;51.336;12.406;2024-02-21T08:49:15;10.10;99.90
24518;DHT22;12678;51.336;12.406;2024-02-21T08:51:40;10.10;99.90
24518;DHT22;12678;51.336;12.406;2024-02-21T08:54:06;10.10;99.90
24518;DHT22;12678;51.336;12.406;2024-02-21T08:56:31;10.10;99.90
24518;DHT22;12678;51.336;12.406;2024-02-21T08:58:58;10.10;99.90
24518;DHT22;12678;51.336;12.406;2024-02-21T09:01:23;10.00;99.90
24518;DHT22;12678;51.336;12.406;2024-02-21T09:03:49;10.00;99.90
24518;DHT22;12678;51.336;12.406;2024-02-21T09:06:19;10.00;99.90
24518;DHT22;12678;51.336;12.406;2024-02-21T09:08:45;9.90;99.90
24518;DHT22;12678;51.336;12.406;2024-02-21T09:11:11;9.90;99.90
24518;DHT22;12678;51.336;12.406;2024-02-21T09:13:36;9.90;99.90
24518;DHT22;12678;51.336;12.406;2024-02-21T09:16:02;10.00;99.90
24518;DHT22;12678;51.336;12.406;2024-02-21T09:18:28;10.00;99.90
24518;DHT22;12678;51.336;12.406;2024-02-21T09:20:54;10.00;99.90
24518;DHT22;12678;51.336;12.406;2024-02-21T09:23:19;10.00;99.90
24518;DHT22;12678;51.336;12.406;2024-02-21T09:25:45;9.90;99.90
24518;DHT22;12678;51.336;12.406;2024-02-21T09:28:11;10.00;99.90
24518;DHT22;12678;51.336;12.406;2024-02-21T09:30:38;10.00;99.90
24518;DHT22;12678;51.336;12.406;2024-02-21T09:33:04;10.00;99.90
24518;DHT22;12678;51.336;12.406;2024-02-21T09:35:30;10.10;99.90
24518;DHT22;12678;51.336;12.406;2024-02-21T09:37:56;10.10;99.90
24518;DHT22;12678;51.336;12.406;2024-02-21T09:40:21;10.20;99.90
24518;DHT22;12678;51.336;12.406;2024-02-21T09:42:48;10.30;99.90
24518;DHT22;12678;51.336;12.406;2024-02-21T09:45:20;10.30;99.90
24518;DHT22;12678;51.336;12.406;2024-02-21T09:50:27;10.40;99.90
24518;DHT22;12678;51.336;12.406;2024-02-21T09:52:54;10.50;99.90
24518;DHT22;12678;51.336;12.406;2024-02-21T09:55:21;10.40;99.90
24518;DHT22;12678;51.336;12.406;2024-02-21T09:57:46;10.40;99.90
24518;DHT22;12678;51.336;12.406;2024-02-21T10:00:13;10.40;99.90
24518;DHT22;12678;51.336;12.406;2024-02-21T10:02:47;10.40;99.90
24518;DHT22;12678;51.336;12.406;2024-02-21T10:05:13;10.40;99.90
24518;DHT22;12678;51.336;12.406;2024-02-21T10:07:39;10.40;99.90
24518;DHT22;12678;51.336;12.406;2024-02-21T10:10:05;10.50;99.90
24518;DHT22;12678;51.336;12.406;2024-02-21T10:12:31;10.60;99.90
24518;DHT22;12678;51.336;12.406;2024-02-21T10:15:03;10.60;99.90
24518;DHT22;12678;51.336;12.406;2024-02-21T10:17:29;10.60;99.90
24518;DHT22;12678;51.336;12.406;2024-02-21T10:19:55;10.60;99.90
24518;DHT22;12678;51.336;12.406;2024-02-21T10:22:21;10.60;99.90
24518;DHT22;12678;51.336;12.406;2024-02-21T10:24:46;10.70;99.90
24518;DHT22;12678;51.336;12.406;2024-02-21T10:27:12;10.70;99.90
24518;DHT22;12678;51.336;12.406;2024-02-21T10:29:38;10.70;99.90
24518;DHT22;12678;51.336;12.406;2024-02-21T10:32:11;10.80;99.90
24518;DHT22;12678;51.336;12.406;2024-02-21T10:34:39;10.90;99.90
24518;DHT22;12678;51.336;12.406;2024-02-21T10:37:06;10.90;99.90
24518;DHT22;12678;51.336;12.406;2024-02-21T10:39:33;11.00;99.90
24518;DHT22;12678;51.336;12.406;2024-02-21T10:42:01;11.00;99.90
24518;DHT22;12678;51.336;12.406;2024-02-21T10:44:36;11.00;99.90
24518;DHT22;12678;51.336;12.406;2024-02-21T10:47:08;11.10;99.90
24518;DHT22;12678;51.336;12.406;2024-02-21T10:49:39;11.10;99.90
24518;DHT22;12678;51.336;12.406;2024-02-21T10:52:15;11.00;99.90
24518;DHT22;12678;51.336;12.406;2024-02-21T10:54:51;11.10;99.90
24518;DHT22;12678;51.336;12.406;2024-02-21T10:57:19;11.10;99.90
24518;DHT22;12678;51.336;12.406;2024-02-21T10:59:45;11.10;99.90
24518;DHT22;12678;51.336;12.406;2024-02-21T11:02:11;11.10;99.90
24518;DHT22;12678;51.336;12.406;2024-02-21T11:04:37;11.10;99.90
24518;DHT22;12678;51.336;12.406;2024-02-21T11:07:04;11.10;99.90
24518;DHT22;12678;51.336;12.406;2024-02-21T11:09:31;11.00;99.90
24518;DHT22;12678;51.336;12.406;2024-02-21T11:12:03;11.00;99.90
24518;DHT22;12678;51.336;12.406;2024-02-21T11:14:29;11.00;99.90
24518;DHT22;12678;51.336;12.406;2024-02-21T11:16:57;11.00;99.90
24518;DHT22;12678;51.336;12.406;2024-02-21T11:19:26;11.00;99.90
24518;DHT22;12678;51.336;12.406;2024-02-21T11:21:53;11.00;99.90
24518;DHT22;12678;51.336;12.406;2024-02-21T11:26:54;11.20;99.90
24518;DHT22;12678;51.336;12.406;2024-02-21T11:29:25;11.30;99.90
24518;DHT22;12678;51.336;12.406;2024-02-21T11:31:51;11.50;99.90
24518;DHT22;12678;51.336;12.406;2024-02-21T11:34:18;11.60;99.90
24518;DHT22;12678;51.336;12.406;2024-02-21T11:36:52;11.60;99.90
24518;DHT22;12678;51.336;12.406;2024-02-21T11:39:25;11.60;99.90
24518;DHT22;12678;51.336;12.406;2024-02-21T11:44:26;11.70;99.90
24518;DHT22;12678;51.336;12.406;2024-02-21T11:46:52;11.70;99.90
24518;DHT22;12678;51.336;12.406;2024-02-21T11:49:17;11.70;99.90
24518;DHT22;12678;51.336;12.406;2024-02-21T11:51:43;11.70;99.90
24518;DHT22;12678;51.336;12.406;2024-02-21T11:54:10;11.70;99.90
24518;DHT22;12678;51.336;12.406;2024-02-21T11:56:36;11.80;99.90
24518;DHT22;12678;51.336;12.406;2024-02-21T11:59:02;11.80;99.90
24518;DHT22;12678;51.336;12.406;2024-02-21T12:01:27;11.80;99.90
24518;DHT22;12678;51.336;12.406;2024-02-21T12:03:53;11.70;99.90
24518;DHT22;12678;51.336;12.406;2024-02-21T12:06:19;11.70;99.90
24518;DHT22;12678;51.336;12.406;2024-02-21T12:08:46;11.60;99.90
24518;DHT22;12678;51.336;12.406;2024-02-21T12:11:22;11.70;99.90
24518;DHT22;12678;51.336;12.406;2024-02-21T12:14:01;11.90;99.90
24518;DHT22;12678;51.336;12.406;2024-02-21T12:16:28;11.80;99.90
24518;DHT22;12678;51.336;12.406;2024-02-21T12:18:55;11.80;99.90
24518;DHT22;12678;51.336;12.406;2024-02-21T12:21:25;11.80;99.90
24518;DHT22;12678;51.336;12.406;2024-02-21T12:23:53;11.80;99.90
24518;DHT22;12678;51.336;12.406;2024-02-21T12:26:18;11.90;99.90
24518;DHT22;12678;51.336;12.406;2024-02-21T12:28:44;11.90;99.90
24518;DHT22;12678;51.336;12.406;2024-02-21T12:31:10;12.00;99.90
24518;DHT22;12678;51.336;12.406;2024-02-21T12:33:35;12.00;99.90
24518;DHT22;12678;51.336;12.406;2024-02-21T12:36:01;12.00;99.90
24518;DHT22;12678;51.336;12.406;2024-02-21T12:38:26;12.10;99.90
24518;DHT22;12678;51.336;12.406;2024-02-21T12:40:52;12.00;99.90
24518;DHT22;12678;51.336;12.406;2024-02-21T12:43:18;12.00;99.90
24518;DHT22;12678;51.336;12.406;2024-02-21T12:45:45;12.00;99.90
24518;DHT22;12678;51.336;12.406;2024-02-21T12:48:10;12.00;99.90
24518;DHT22;12678;51.336;12.406;2024-02-21T12:50:36;12.10;99.90
24518;DHT22;12678;51.336;12.406;2024-02-21T12:53:01;12.20;99.90
24518;DHT22;12678;51.336;12.406;2024-02-21T12:55:27;12.10;99.90
24518;DHT22;12678;51.336;12.406;2024-02-21T12:57:53;12.10;99.90
24518;DHT22;12678;51.336;12.406;2024-02-21T13:00:18;12.10;99.90
24518;DHT22;12678;51.336;12.406;2024-02-21T13:02:46;12.20;99.90
24518;DHT22;12678;51.336;12.406;2024-02-21T13:05:12;12.30;99.90
24518;DHT22;12678;51.336;12.406;2024-02-21T13:07:37;12.20;99.90
24518;DHT22;12678;51.336;12.406;2024-02-21T13:10:03;12.20;99.90
24518;DHT22;12678;51.336;12.406;2024-02-21T13:12:30;12.10;99.90
24518;DHT22;12678;51.336;12.406;2024-02-21T13:14:56;12.10;99.90
24518;DHT22;12678;51.336;12.406;2024-02-21T13:17:22;12.00;99.90
24518;DHT22;12678;51.336;12.406;2024-02-21T13:19:47;12.10;99.90
24518;DHT22;12678;51.336;12.406;2024-02-21T13:22:13;12.00;99.90
24518;DHT22;12678;51.336;12.406;2024-02-21T13:24:38;12.00;99.90
24518;DHT22;12678;51.336;12.406;2024-02-21T13:27:04;12.10;99.90
24518;DHT22;12678;51.336;12.406;2024-02-21T13:29:30;12.20;99.90
24518;DHT22;12678;51.336;12.406;2024-02-21T13:31:55;12.20;99.90
24518;DHT22;12678;51.336;12.406;2024-02-21T13:34:21;12.30;99.90
24518;DHT22;12678;51.336;12.406;2024-02-21T13:36:46;12.30;99.90
24518;DHT22;12678;51.336;12.406;2024-02-21T13:39:12;12.20;99.90
24518;DHT22;12678;51.336;12.406;2024-02-21T13:41:41;12.20;99.90
24518;DHT22;12678;51.336;12.406;2024-02-21T13:44:07;12.10;99.90
24518;DHT22;12678;51.336;12.406;2024-02-21T13:46:34;12.10;99.90
24518;DHT22;12678;51.336;12.406;2024-02-21T13:49:05;12.20;99.90
24518;DHT22;12678;51.336;12.406;2024-02-21T13:51:32;12.20;99.90
24518;DHT22;12678;51.336;12.406;2024-02-21T13:53:58;12.20;99.90
24518;DHT22;12678;51.336;12.406;2024-02-21T13:56:24;12.20;99.90
24518;DHT22;12678;51.336;12.406;2024-02-21T13:58:50;12.20;99.90
24518;DHT22;12678;51.336;12.406;2024-02-21T14:01:16;12.30;99.90
24518;DHT22;12678;51.336;12.406;2024-02-21T14:03:42;12.30;99.90
24518;DHT22;12678;51.336;12.406;2024-02-21T14:06:07;12.30;99.90
24518;DHT22;12678;51.336;12.406;2024-02-21T14:08:33;12.40;99.90
24518;DHT22;12678;51.336;12.406;2024-02-21T14:10:59;12.40;99.90
24518;DHT22;12678;51.336;12.406;2024-02-21T14:13:26;12.40;99.90
24518;DHT22;12678;51.336;12.406;2024-02-21T14:15:51;12.50;99.90
24518;DHT22;12678;51.336;12.406;2024-02-21T14:18:17;12.50;99.90
24518;DHT22;12678;51.336;12.406;2024-02-21T14:20:43;12.50;99.90
24518;DHT22;12678;51.336;12.406;2024-02-21T14:23:08;12.50;99.90
24518;DHT22;12678;51.336;12.406;2024-02-21T14:25:34;12.50;99.90
24518;DHT22;12678;51.336;12.406;2024-02-21T14:27:59;12.50;99.90
24518;DHT22;12678;51.336;12.406;2024-02-21T14:30:28;12.50;99.90
24518;DHT22;12678;51.336;12.406;2024-02-21T14:32:53;12.50;99.90
24518;DHT22;12678;51.336;12.406;2024-02-21T14:35:19;12.40;99.90
24518;DHT22;12678;51.336;12.406;2024-02-21T14:37:44;12.40;99.90
24518;DHT22;12678;51.336;12.406;2024-02-21T14:40:11;12.40;99.90
24518;DHT22;12678;51.336;12.406;2024-02-21T14:42:37;12.40;99.90
24518;DHT22;12678;51.336;12.406;2024-02-21T14:45:03;12.30;99.90
24518;DHT22;12678;51.336;12.406;2024-02-21T14:47:30;12.30;99.90
24518;DHT22;12678;51.336;12.406;2024-02-21T14:49:56;12.30;99.90
24518;DHT22;12678;51.336;12.406;2024-02-21T14:52:22;12.30;99.90
24518;DHT22;12678;51.336;12.406;2024-02-21T14:54:49;12.30;99.90
24518;DHT22;12678;51.336;12.406;2024-02-21T14:57:17;12.30;99.90
24518;DHT22;12678;51.336;12.406;2024-02-21T14:59:43;12.20;99.90
24518;DHT22;12678;51.336;12.406;2024-02-21T15:02:08;12.20;99.90
24518;DHT22;12678;51.336;12.406;2024-02-21T15:04:35;12.20;99.90
24518;DHT22;12678;51.336;12.406;2024-02-21T15:07:01;12.20;99.90
24518;DHT22;12678;51.336;12.406;2024-02-21T15:09:27;12.10;99.90
24518;DHT22;12678;51.336;12.406;2024-02-21T15:11:53;12.10;99.90
24518;DHT22;12678;51.336;12.406;2024-02-21T15:14:19;12.10;99.90
24518;DHT22;12678;51.336;12.406;2024-02-21T15:16:46;12.10;99.90
24518;DHT22;12678;51.336;12.406;2024-02-21T15:19:11;12.10;99.90
24518;DHT22;12678;51.336;12.406;2024-02-21T15:21:37;12.10;99.90
24518;DHT22;12678;51.336;12.406;2024-02-21T15:24:03;12.10;99.90
24518;DHT22;12678;51.336;12.406;2024-02-21T15:26:29;12.10;99.90